1887 Hurricane NOT_NAMED (1887246N18324)


IBTrACS version v04r00. Visit IBTrACS website for data access.
Please direct all questions to the IBTrACS Q and A forum

Storm track - Intensity - Wind Radii - Intensity Data - Source Data - All data

Summary Information

Storm ID 1887246N18324
Start Sep 2 12Z
Max Intensity 90 kt (Sep 6 06Z)
End Sep 9 12Z
ATCF IDs
Track status Best track data.

Storm track plot

Map of storm track

Intensity plots

Map of storm track

Radial wind information

No radial wind information for this storm


Position and Intensity Table

BASIN ISO_TIME_________ NATURE LAT LON MLC WIND
degrees north degrees east kts
NA 1887-09-02 12:00:00 TS 17.50 -36.00 35
NA 15:00:00 TS 17.60 -36.86 35
NA 18:00:00 TS 17.70 -37.70 35
NA 21:00:00 TS 17.80 -38.51 37
NA 1887-09-03 00:00:00 TS 17.90 -39.30 40
NA 03:00:00 TS 18.01 -40.10 40
NA 06:00:00 TS 18.10 -40.90 40
NA 09:00:00 TS 18.16 -41.72 42
NA 12:00:00 TS 18.20 -42.50 45
NA 15:00:00 TS 18.17 -43.18 45
NA 18:00:00 TS 18.30 -43.80 45
NA 21:00:00 TS 18.81 -44.40 47
NA 1887-09-04 00:00:00 TS 19.40 -45.00 50
NA 03:00:00 TS 19.74 -45.65 52
NA 06:00:00 TS 20.00 -46.30 55
NA 09:00:00 TS 20.23 -46.92 57
NA 12:00:00 TS 20.50 -47.50 60
NA 15:00:00 TS 20.88 -48.02 60
NA 18:00:00 TS 21.30 -48.50 60
NA 21:00:00 TS 21.65 -49.00 65
NA 1887-09-05 00:00:00 TS 22.00 -49.50 70
NA 03:00:00 TS 22.40 -50.00 72
NA 06:00:00 TS 22.80 -50.50 75
NA 09:00:00 TS 23.11 -51.02 77
NA 12:00:00 TS 23.50 -51.50 80
NA 15:00:00 TS 24.11 -51.92 82
NA 18:00:00 TS 24.80 -52.30 85
NA 21:00:00 TS 25.40 -52.67 85
NA 1887-09-06 00:00:00 TS 26.00 -53.00 85
NA 03:00:00 TS 26.65 -53.30 87
NA 06:00:00 TS 27.30 -53.50 90
NA 09:00:00 TS 27.89 -53.55 90
NA 12:00:00 TS 28.50 -53.50 90
NA 15:00:00 TS 29.19 -53.46 90
NA 18:00:00 TS 29.90 -53.40 90
NA 21:00:00 TS 30.56 -53.38 87
NA 1887-09-07 00:00:00 TS 31.20 -53.30 85
NA 03:00:00 TS 31.85 -53.08 85
NA 06:00:00 TS 32.50 -52.80 85
NA 09:00:00 TS 33.13 -52.60 85
NA 12:00:00 TS 33.80 -52.30 85
NA 15:00:00 TS 34.54 -51.75 82
NA 18:00:00 TS 35.30 -51.10 80
NA 21:00:00 TS 36.05 -50.50 77
NA 1887-09-08 00:00:00 TS 36.80 -49.90 75
NA 03:00:00 TS 37.55 -49.30 72
NA 06:00:00 TS 38.30 -48.70 70
NA 09:00:00 TS 39.07 -48.13 67
NA 12:00:00 TS 39.80 -47.50 65
NA 15:00:00 TS 40.42 -46.72 60
NA 18:00:00 TS 41.00 -45.90 55
NA 21:00:00 TS 41.64 -45.15 52
NA 1887-09-09 00:00:00 TS 42.30 -44.40 50
NA 03:00:00 TS 42.96 -43.60 45
NA 06:00:00 TS 43.60 -42.80 40
NA 09:00:00 TS 44.21 -42.04 37
NA 12:00:00 TS 44.80 -41.30 35

Source Information

Agency Information
USA
TOKYO
CMA
HKO
NEWDELHI
REUNION
BOM
NADI
WELLINGTON
DS824
TD9636
TD9635
NEUMANN
MLC

All available IBTrACS Data

SEASON BASIN SUBBASIN ISO_TIME_________ NATURE LAT LON DIST2LAND LANDFALL IFLAG USA SSHS MLC LAT MLC LON MLC CLASS MLC WIND STORM SPEED STORM DIR
Year degrees north degrees east km km 1 degrees north degrees east kts kts degrees
1887 NA NA 1887-09-02 12:00:00 TS 17.50 -36.00 2000 2000 _____________O -1 17.50 -36.00 TS 35 17 277
1887 NA NA 15:00:00 TS 17.60 -36.86 2096 2096 _____________P -1 17.60 -36.86 TS 35 16 277
1887 NA NA 18:00:00 TS 17.70 -37.70 2108 2056 _____________O -1 17.70 -37.70 TS 35 16 277
1887 NA NA 21:00:00 TS 17.80 -38.51 2056 2006 _____________P -1 17.80 -38.51 TS 37 15 277
1887 NA NA 1887-09-03 00:00:00 TS 17.90 -39.30 2006 1959 _____________O -1 17.90 -39.30 TS 40 15 278
1887 NA NA 03:00:00 TS 18.01 -40.10 1959 1915 _____________P -1 18.01 -40.10 TS 40 15 277
1887 NA NA 06:00:00 TS 18.10 -40.90 1915 1871 _____________O -1 18.10 -40.90 TS 40 16 276
1887 NA NA 09:00:00 TS 18.16 -41.72 1874 1823 _____________P -1 18.16 -41.72 TS 42 15 274
1887 NA NA 12:00:00 TS 18.20 -42.50 1823 1784 _____________O -1 18.20 -42.50 TS 45 14 271
1887 NA NA 15:00:00 TS 18.17 -43.18 1778 1747 _____________P -1 18.17 -43.18 TS 45 12 275
1887 NA NA 18:00:00 TS 18.30 -43.80 1751 1745 _____________O -1 18.30 -43.80 TS 45 13 299
1887 NA NA 21:00:00 TS 18.81 -44.40 1763 1763 _____________P -1 18.81 -44.40 TS 47 16 314
1887 NA NA 1887-09-04 00:00:00 TS 19.40 -45.00 1790 1790 _____________O -1 19.40 -45.00 TS 50 15 308
1887 NA NA 03:00:00 TS 19.74 -45.65 1786 1783 _____________P -1 19.74 -45.65 TS 52 14 296
1887 NA NA 06:00:00 TS 20.00 -46.30 1789 1783 _____________O -1 20.00 -46.30 TS 55 13 292
1887 NA NA 09:00:00 TS 20.23 -46.92 1784 1780 _____________P -1 20.23 -46.92 TS 57 12 294
1887 NA NA 12:00:00 TS 20.50 -47.50 1787 1783 _____________O -1 20.50 -47.50 TS 60 12 302
1887 NA NA 15:00:00 TS 20.88 -48.02 1797 1785 _____________P -1 20.88 -48.02 TS 60 12 311
1887 NA NA 18:00:00 TS 21.30 -48.50 1785 1767 _____________O -1 21.30 -48.50 TS 60 12 310
1887 NA NA 21:00:00 TS 21.65 -49.00 1767 1726 _____________P -1 21.65 -49.00 TS 65 12 307
1887 NA NA 1887-09-05 00:00:00 TS 22.00 -49.50 1726 1685 _____________O -1 22.00 -49.50 HU 70 12 309
1887 NA NA 03:00:00 TS 22.40 -50.00 1685 1645 _____________P -1 22.40 -50.00 HU 72 12 311
1887 NA NA 06:00:00 TS 22.80 -50.50 1645 1605 _____________O -1 22.80 -50.50 HU 75 12 307
1887 NA NA 09:00:00 TS 23.11 -51.02 1605 1570 _____________P -1 23.11 -51.02 HU 77 12 307
1887 NA NA 12:00:00 TS 23.50 -51.50 1570 1550 _____________O -1 23.50 -51.50 HU 80 13 320
1887 NA NA 15:00:00 TS 24.11 -51.92 1554 1543 _____________P -1 24.11 -51.92 HU 82 15 331
1887 NA NA 18:00:00 TS 24.80 -52.30 1548 1540 _____________O -1 24.80 -52.30 HU 85 15 332
1887 NA NA 21:00:00 TS 25.40 -52.67 1542 1540 _____________P -1 25.40 -52.67 HU 85 14 332
1887 NA NA 1887-09-06 00:00:00 TS 26.00 -53.00 1548 1545 _____________O -1 26.00 -53.00 HU 85 14 336
1887 NA NA 03:00:00 TS 26.65 -53.30 1559 1559 _____________P -1 26.65 -53.30 HU 87 14 341
1887 NA NA 06:00:00 TS 27.30 -53.50 1587 1587 _____________O -1 27.30 -53.50 HU 90 13 350
1887 NA NA 09:00:00 TS 27.89 -53.55 1627 1627 _____________P -1 27.89 -53.55 HU 90 12 1
1887 NA NA 12:00:00 TS 28.50 -53.50 1670 1670 _____________O -1 28.50 -53.50 HU 90 13 4
1887 NA NA 15:00:00 TS 29.19 -53.46 1721 1721 _____________P -1 29.19 -53.46 HU 90 14 4
1887 NA NA 18:00:00 TS 29.90 -53.40 1781 1768 _____________O -1 29.90 -53.40 HU 90 14 3
1887 NA NA 21:00:00 TS 30.56 -53.38 1757 1698 _____________P -1 30.56 -53.38 HU 87 13 4
1887 NA NA 1887-09-07 00:00:00 TS 31.20 -53.30 1698 1643 _____________O -1 31.20 -53.30 HU 85 13 11
1887 NA NA 03:00:00 TS 31.85 -53.08 1633 1569 _____________P -1 31.85 -53.08 HU 85 14 18
1887 NA NA 06:00:00 TS 32.50 -52.80 1569 1503 _____________O -1 32.50 -52.80 HU 85 14 18
1887 NA NA 09:00:00 TS 33.13 -52.60 1503 1426 _____________P -1 33.13 -52.60 HU 85 14 18
1887 NA NA 12:00:00 TS 33.80 -52.30 1426 1351 _____________O -1 33.80 -52.30 HU 85 16 27
1887 NA NA 15:00:00 TS 34.54 -51.75 1351 1269 _____________P -1 34.54 -51.75 HU 82 18 33
1887 NA NA 18:00:00 TS 35.30 -51.10 1269 1198 _____________O -1 35.30 -51.10 HU 80 18 34
1887 NA NA 21:00:00 TS 36.05 -50.50 1200 1123 _____________P -1 36.05 -50.50 HU 77 18 33
1887 NA NA 1887-09-08 00:00:00 TS 36.80 -49.90 1123 1059 _____________O -1 36.80 -49.90 HU 75 18 33
1887 NA NA 03:00:00 TS 37.55 -49.30 1061 993 _____________P -1 37.55 -49.30 HU 72 18 32
1887 NA NA 06:00:00 TS 38.30 -48.70 993 937 _____________O -1 38.30 -48.70 HU 70 18 31
1887 NA NA 09:00:00 TS 39.07 -48.13 930 884 _____________P -1 39.07 -48.13 HU 67 18 32
1887 NA NA 12:00:00 TS 39.80 -47.50 884 859 _____________O -1 39.80 -47.50 HU 65 17 39
1887 NA NA 15:00:00 TS 40.42 -46.72 864 850 _____________P -1 40.42 -46.72 HU 60 17 45
1887 NA NA 18:00:00 TS 41.00 -45.90 852 840 _____________O -1 41.00 -45.90 TS 55 17 44
1887 NA NA 21:00:00 TS 41.64 -45.15 850 836 _____________P -1 41.64 -45.15 TS 52 17 41
1887 NA NA 1887-09-09 00:00:00 TS 42.30 -44.40 842 841 _____________O -1 42.30 -44.40 TS 50 17 41
1887 NA NA 03:00:00 TS 42.96 -43.60 849 849 _____________P -1 42.96 -43.60 TS 45 17 42
1887 NA NA 06:00:00 TS 43.60 -42.80 870 870 _____________O -1 43.60 -42.80 TS 40 17 42
1887 NA NA 09:00:00 TS 44.21 -42.04 895 889 _____________P -1 44.21 -42.04 TS 37 16 42
1887 NA NA 12:00:00 TS 44.80 -41.30 916 _____________O -1 44.80 -41.30 TS 35 16 42